<?xml version="1.0" encoding="UTF-8" standalone="no" ?>
<gpx xmlns="http://www.topografix.com/GPX/1/1" creator="MapSource 6.11.6" version="1.1" xmlns:xsi="http://www.w3.org/2001/XMLSchema-instance" xsi:schemaLocation="http://www.topografix.com/GPX/1/1 http://www.topografix.com/GPX/1/1/gpx.xsd">

  <metadata>
    <link href="http://www.garmin.com">
      <text>Garmin International</text>
    </link>
    <time>2009-07-19T14:24:43Z</time>
    <bounds maxlat="50.720368" maxlon="6.472539" minlat="50.691290" minlon="6.442734"/>
  </metadata>

  <trk>
    <name>Zerkall - Obermaubach - Engelsblick - Mausauel - Kuhkopf - Eugenienstein - Nideggen</name>
    <extensions>
      <gpxx:TrackExtension xmlns:gpxx="http://www.garmin.com/xmlschemas/GpxExtensions/v3" xmlns:xsi="http://www.w3.org/2001/XMLSchema-instance" xsi:schemaLocation="http://www.garmin.com/xmlschemas/GpxExtensions/v3 http://www.garmin.com/xmlschemas/GpxExtensions/v3/GpxExtensionsv3.xsd">
        <gpxx:DisplayColor>White</gpxx:DisplayColor>
      </gpxx:TrackExtension>
    </extensions>
    <trkseg>
      <trkpt lat="50.691431" lon="6.454604">
        <ele>188.600000</ele>
        <time>2009-07-19T16:22:08Z</time>
      </trkpt>
      <trkpt lat="50.691963" lon="6.453939">
        <ele>187.100000</ele>
        <time>2009-07-19T16:23:30Z</time>
      </trkpt>
      <trkpt lat="50.693322" lon="6.453276">
        <ele>185.700000</ele>
        <time>2009-07-19T16:26:24Z</time>
      </trkpt>
      <trkpt lat="50.694189" lon="6.453272">
        <ele>185.700000</ele>
        <time>2009-07-19T16:28:10Z</time>
      </trkpt>
      <trkpt lat="50.695996" lon="6.455005">
        <ele>184.200000</ele>
        <time>2009-07-19T16:32:28Z</time>
      </trkpt>
      <trkpt lat="50.696480" lon="6.457863">
        <ele>183.300000</ele>
        <time>2009-07-19T16:36:16Z</time>
      </trkpt>
      <trkpt lat="50.697067" lon="6.459793">
        <ele>192.900000</ele>
        <time>2009-07-19T16:39:02Z</time>
      </trkpt>
      <trkpt lat="50.697212" lon="6.459635">
        <ele>198.200000</ele>
        <time>2009-07-19T16:39:23Z</time>
      </trkpt>
      <trkpt lat="50.697351" lon="6.459741">
        <ele>201.500000</ele>
        <time>2009-07-19T16:39:42Z</time>
      </trkpt>
      <trkpt lat="50.697728" lon="6.459665">
        <ele>206.800000</ele>
        <time>2009-07-19T16:40:29Z</time>
      </trkpt>
      <trkpt lat="50.698004" lon="6.459336">
        <ele>211.100000</ele>
        <time>2009-07-19T16:41:11Z</time>
      </trkpt>
      <trkpt lat="50.698222" lon="6.458970">
        <ele>215.000000</ele>
        <time>2009-07-19T16:41:50Z</time>
      </trkpt>
      <trkpt lat="50.698717" lon="6.458676">
        <ele>218.400000</ele>
        <time>2009-07-19T16:42:54Z</time>
      </trkpt>
      <trkpt lat="50.698886" lon="6.458553">
        <ele>219.300000</ele>
        <time>2009-07-19T16:43:17Z</time>
      </trkpt>
      <trkpt lat="50.698952" lon="6.457765">
        <ele>225.100000</ele>
        <time>2009-07-19T16:44:18Z</time>
      </trkpt>
      <trkpt lat="50.698940" lon="6.457266">
        <ele>226.000000</ele>
        <time>2009-07-19T16:44:57Z</time>
      </trkpt>
      <trkpt lat="50.698721" lon="6.454267">
        <ele>231.800000</ele>
        <time>2009-07-19T16:48:50Z</time>
      </trkpt>
      <trkpt lat="50.699031" lon="6.452479">
        <ele>229.900000</ele>
        <time>2009-07-19T16:51:14Z</time>
      </trkpt>
      <trkpt lat="50.699118" lon="6.452084">
        <ele>223.600000</ele>
        <time>2009-07-19T16:51:46Z</time>
      </trkpt>
      <trkpt lat="50.699104" lon="6.451720">
        <ele>217.400000</ele>
        <time>2009-07-19T16:52:14Z</time>
      </trkpt>
      <trkpt lat="50.699091" lon="6.451314">
        <ele>214.000000</ele>
        <time>2009-07-19T16:52:46Z</time>
      </trkpt>
      <trkpt lat="50.699042" lon="6.450846">
        <ele>210.200000</ele>
        <time>2009-07-19T16:53:22Z</time>
      </trkpt>
      <trkpt lat="50.698962" lon="6.450350">
        <ele>206.300000</ele>
        <time>2009-07-19T16:54:02Z</time>
      </trkpt>
      <trkpt lat="50.699320" lon="6.449923">
        <ele>202.000000</ele>
        <time>2009-07-19T16:54:57Z</time>
      </trkpt>
      <trkpt lat="50.699420" lon="6.449514">
        <ele>198.200000</ele>
        <time>2009-07-19T16:55:30Z</time>
      </trkpt>
      <trkpt lat="50.699470" lon="6.449297">
        <ele>194.800000</ele>
        <time>2009-07-19T16:55:48Z</time>
      </trkpt>
      <trkpt lat="50.699609" lon="6.448553">
        <ele>190.000000</ele>
        <time>2009-07-19T16:56:48Z</time>
      </trkpt>
      <trkpt lat="50.699674" lon="6.448219">
        <ele>185.700000</ele>
        <time>2009-07-19T16:57:15Z</time>
      </trkpt>
      <trkpt lat="50.699712" lon="6.448087">
        <ele>181.300000</ele>
        <time>2009-07-19T16:57:26Z</time>
      </trkpt>
      <trkpt lat="50.699809" lon="6.447902">
        <ele>177.500000</ele>
        <time>2009-07-19T16:57:45Z</time>
      </trkpt>
      <trkpt lat="50.700006" lon="6.447955">
        <ele>177.000000</ele>
        <time>2009-07-19T16:58:09Z</time>
      </trkpt>
      <trkpt lat="50.700920" lon="6.448077">
        <ele>177.500000</ele>
        <time>2009-07-19T17:00:01Z</time>
      </trkpt>
      <trkpt lat="50.701030" lon="6.448565">
        <ele>181.800000</ele>
        <time>2009-07-19T17:00:41Z</time>
      </trkpt>
      <trkpt lat="50.701230" lon="6.448336">
        <ele>186.200000</ele>
        <time>2009-07-19T17:01:11Z</time>
      </trkpt>
      <trkpt lat="50.701490" lon="6.447988">
        <ele>191.400000</ele>
        <time>2009-07-19T17:01:53Z</time>
      </trkpt>
      <trkpt lat="50.701719" lon="6.447770">
        <ele>193.800000</ele>
        <time>2009-07-19T17:02:26Z</time>
      </trkpt>
      <trkpt lat="50.701799" lon="6.447585">
        <ele>194.800000</ele>
        <time>2009-07-19T17:02:43Z</time>
      </trkpt>
      <trkpt lat="50.701886" lon="6.447401">
        <ele>198.200000</ele>
        <time>2009-07-19T17:03:01Z</time>
      </trkpt>
      <trkpt lat="50.702598" lon="6.446681">
        <ele>204.900000</ele>
        <time>2009-07-19T17:04:44Z</time>
      </trkpt>
      <trkpt lat="50.702909" lon="6.446432">
        <ele>208.300000</ele>
        <time>2009-07-19T17:05:27Z</time>
      </trkpt>
      <trkpt lat="50.703463" lon="6.445491">
        <ele>205.900000</ele>
        <time>2009-07-19T17:07:06Z</time>
      </trkpt>
      <trkpt lat="50.703904" lon="6.444645">
        <ele>202.500000</ele>
        <time>2009-07-19T17:08:30Z</time>
      </trkpt>
      <trkpt lat="50.704987" lon="6.442734">
        <ele>202.500000</ele>
        <time>2009-07-19T17:11:49Z</time>
      </trkpt>
      <trkpt lat="50.705722" lon="6.442785">
        <ele>204.400000</ele>
        <time>2009-07-19T17:13:18Z</time>
      </trkpt>
      <trkpt lat="50.707026" lon="6.443374">
        <ele>209.700000</ele>
        <time>2009-07-19T17:16:04Z</time>
      </trkpt>
      <trkpt lat="50.707231" lon="6.443488">
        <ele>208.300000</ele>
        <time>2009-07-19T17:16:31Z</time>
      </trkpt>
      <trkpt lat="50.707597" lon="6.443309">
        <ele>204.900000</ele>
        <time>2009-07-19T17:17:17Z</time>
      </trkpt>
      <trkpt lat="50.708584" lon="6.442932">
        <ele>200.100000</ele>
        <time>2009-07-19T17:19:21Z</time>
      </trkpt>
      <trkpt lat="50.709007" lon="6.442844">
        <ele>196.700000</ele>
        <time>2009-07-19T17:20:13Z</time>
      </trkpt>
      <trkpt lat="50.709576" lon="6.443423">
        <ele>198.200000</ele>
        <time>2009-07-19T17:21:36Z</time>
      </trkpt>
      <trkpt lat="50.710244" lon="6.443603">
        <ele>191.400000</ele>
        <time>2009-07-19T17:22:59Z</time>
      </trkpt>
      <trkpt lat="50.710614" lon="6.443627">
        <ele>183.700000</ele>
        <time>2009-07-19T17:23:44Z</time>
      </trkpt>
      <trkpt lat="50.710733" lon="6.443630">
        <ele>183.700000</ele>
        <time>2009-07-19T17:23:58Z</time>
      </trkpt>
      <trkpt lat="50.710824" lon="6.443619">
        <ele>182.300000</ele>
        <time>2009-07-19T17:24:09Z</time>
      </trkpt>
      <trkpt lat="50.711737" lon="6.444658">
        <ele>180.900000</ele>
        <time>2009-07-19T17:26:27Z</time>
      </trkpt>
      <trkpt lat="50.712332" lon="6.445196">
        <ele>177.000000</ele>
        <time>2009-07-19T17:27:50Z</time>
      </trkpt>
      <trkpt lat="50.713696" lon="6.446893">
        <ele>175.100000</ele>
        <time>2009-07-19T17:31:22Z</time>
      </trkpt>
      <trkpt lat="50.715172" lon="6.448966">
        <ele>172.700000</ele>
        <time>2009-07-19T17:35:23Z</time>
      </trkpt>
      <trkpt lat="50.715364" lon="6.449188">
        <ele>172.200000</ele>
        <time>2009-07-19T17:35:52Z</time>
      </trkpt>
      <trkpt lat="50.715436" lon="6.449396">
        <ele>171.700000</ele>
        <time>2009-07-19T17:36:11Z</time>
      </trkpt>
      <trkpt lat="50.715919" lon="6.451243">
        <ele>175.600000</ele>
        <time>2009-07-19T17:38:45Z</time>
      </trkpt>
      <trkpt lat="50.716074" lon="6.451684">
        <ele>178.900000</ele>
        <time>2009-07-19T17:39:24Z</time>
      </trkpt>
      <trkpt lat="50.716608" lon="6.452440">
        <ele>185.200000</ele>
        <time>2009-07-19T17:40:52Z</time>
      </trkpt>
      <trkpt lat="50.716746" lon="6.452685">
        <ele>186.200000</ele>
        <time>2009-07-19T17:41:17Z</time>
      </trkpt>
      <trkpt lat="50.716908" lon="6.453658">
        <ele>189.500000</ele>
        <time>2009-07-19T17:42:35Z</time>
      </trkpt>
      <trkpt lat="50.716835" lon="6.453648">
        <ele>190.500000</ele>
        <time>2009-07-19T17:42:44Z</time>
      </trkpt>
      <trkpt lat="50.716314" lon="6.452881">
        <ele>194.800000</ele>
        <time>2009-07-19T17:44:11Z</time>
      </trkpt>
      <trkpt lat="50.716079" lon="6.452635">
        <ele>198.200000</ele>
        <time>2009-07-19T17:44:45Z</time>
      </trkpt>
      <trkpt lat="50.715861" lon="6.452193">
        <ele>200.100000</ele>
        <time>2009-07-19T17:45:28Z</time>
      </trkpt>
      <trkpt lat="50.715920" lon="6.452958">
        <ele>203.900000</ele>
        <time>2009-07-19T17:46:28Z</time>
      </trkpt>
      <trkpt lat="50.715983" lon="6.454307">
        <ele>210.200000</ele>
        <time>2009-07-19T17:48:12Z</time>
      </trkpt>
      <trkpt lat="50.716380" lon="6.455546">
        <ele>214.500000</ele>
        <time>2009-07-19T17:50:00Z</time>
      </trkpt>
      <trkpt lat="50.717015" lon="6.455904">
        <ele>217.900000</ele>
        <time>2009-07-19T17:51:22Z</time>
      </trkpt>
      <trkpt lat="50.717004" lon="6.456076">
        <ele>219.300000</ele>
        <time>2009-07-19T17:51:35Z</time>
      </trkpt>
      <trkpt lat="50.716993" lon="6.456307">
        <ele>220.800000</ele>
        <time>2009-07-19T17:51:53Z</time>
      </trkpt>
      <trkpt lat="50.717271" lon="6.456975">
        <ele>224.600000</ele>
        <time>2009-07-19T17:52:55Z</time>
      </trkpt>
      <trkpt lat="50.717928" lon="6.457951">
        <ele>228.500000</ele>
        <time>2009-07-19T17:54:45Z</time>
      </trkpt>
      <trkpt lat="50.718365" lon="6.458278">
        <ele>223.600000</ele>
        <time>2009-07-19T17:55:44Z</time>
      </trkpt>
      <trkpt lat="50.719074" lon="6.458746">
        <ele>228.500000</ele>
        <time>2009-07-19T17:57:18Z</time>
      </trkpt>
      <trkpt lat="50.719293" lon="6.458973">
        <ele>231.800000</ele>
        <time>2009-07-19T17:57:50Z</time>
      </trkpt>
      <trkpt lat="50.719668" lon="6.459296">
        <ele>235.700000</ele>
        <time>2009-07-19T17:58:42Z</time>
      </trkpt>
      <trkpt lat="50.720126" lon="6.459988">
        <ele>240.500000</ele>
        <time>2009-07-19T17:59:59Z</time>
      </trkpt>
      <trkpt lat="50.720368" lon="6.460509">
        <ele>242.400000</ele>
        <time>2009-07-19T18:00:49Z</time>
      </trkpt>
      <trkpt lat="50.720001" lon="6.460396">
        <ele>245.800000</ele>
        <time>2009-07-19T18:01:35Z</time>
      </trkpt>
      <trkpt lat="50.719765" lon="6.460192">
        <ele>251.500000</ele>
        <time>2009-07-19T18:02:08Z</time>
      </trkpt>
      <trkpt lat="50.719558" lon="6.460052">
        <ele>256.300000</ele>
        <time>2009-07-19T18:02:35Z</time>
      </trkpt>
      <trkpt lat="50.719406" lon="6.459941">
        <ele>260.700000</ele>
        <time>2009-07-19T18:02:56Z</time>
      </trkpt>
      <trkpt lat="50.718618" lon="6.459815">
        <ele>263.100000</ele>
        <time>2009-07-19T18:04:32Z</time>
      </trkpt>
      <trkpt lat="50.718218" lon="6.460120">
        <ele>266.400000</ele>
        <time>2009-07-19T18:05:27Z</time>
      </trkpt>
      <trkpt lat="50.718373" lon="6.460195">
        <ele>267.900000</ele>
        <time>2009-07-19T18:05:46Z</time>
      </trkpt>
      <trkpt lat="50.717690" lon="6.459911">
        <ele>270.300000</ele>
        <time>2009-07-19T18:07:13Z</time>
      </trkpt>
      <trkpt lat="50.717451" lon="6.459675">
        <ele>274.600000</ele>
        <time>2009-07-19T18:07:47Z</time>
      </trkpt>
      <trkpt lat="50.717386" lon="6.459465">
        <ele>278.000000</ele>
        <time>2009-07-19T18:08:05Z</time>
      </trkpt>
      <trkpt lat="50.717292" lon="6.459411">
        <ele>276.000000</ele>
        <time>2009-07-19T18:08:17Z</time>
      </trkpt>
      <trkpt lat="50.717115" lon="6.459321">
        <ele>274.100000</ele>
        <time>2009-07-19T18:08:40Z</time>
      </trkpt>
      <trkpt lat="50.716826" lon="6.458727">
        <ele>270.300000</ele>
        <time>2009-07-19T18:09:38Z</time>
      </trkpt>
      <trkpt lat="50.716115" lon="6.457978">
        <ele>269.300000</ele>
        <time>2009-07-19T18:11:22Z</time>
      </trkpt>
      <trkpt lat="50.715689" lon="6.458212">
        <ele>276.500000</ele>
        <time>2009-07-19T18:12:17Z</time>
      </trkpt>
      <trkpt lat="50.715188" lon="6.458432">
        <ele>281.300000</ele>
        <time>2009-07-19T18:13:21Z</time>
      </trkpt>
      <trkpt lat="50.714891" lon="6.458424">
        <ele>286.600000</ele>
        <time>2009-07-19T18:13:57Z</time>
      </trkpt>
      <trkpt lat="50.714783" lon="6.458428">
        <ele>286.100000</ele>
        <time>2009-07-19T18:14:10Z</time>
      </trkpt>
      <trkpt lat="50.714348" lon="6.458500">
        <ele>292.900000</ele>
        <time>2009-07-19T18:15:04Z</time>
      </trkpt>
      <trkpt lat="50.714244" lon="6.458734">
        <ele>297.200000</ele>
        <time>2009-07-19T18:15:26Z</time>
      </trkpt>
      <trkpt lat="50.714072" lon="6.459038">
        <ele>302.500000</ele>
        <time>2009-07-19T18:15:57Z</time>
      </trkpt>
      <trkpt lat="50.713967" lon="6.458888">
        <ele>303.400000</ele>
        <time>2009-07-19T18:16:14Z</time>
      </trkpt>
      <trkpt lat="50.713937" lon="6.458734">
        <ele>303.400000</ele>
        <time>2009-07-19T18:16:27Z</time>
      </trkpt>
      <trkpt lat="50.713982" lon="6.458422">
        <ele>307.800000</ele>
        <time>2009-07-19T18:16:52Z</time>
      </trkpt>
      <trkpt lat="50.714024" lon="6.457864">
        <ele>312.100000</ele>
        <time>2009-07-19T18:17:35Z</time>
      </trkpt>
      <trkpt lat="50.714032" lon="6.457630">
        <ele>315.400000</ele>
        <time>2009-07-19T18:17:53Z</time>
      </trkpt>
      <trkpt lat="50.713988" lon="6.457423">
        <ele>317.400000</ele>
        <time>2009-07-19T18:18:10Z</time>
      </trkpt>
      <trkpt lat="50.713922" lon="6.457205">
        <ele>316.900000</ele>
        <time>2009-07-19T18:18:29Z</time>
      </trkpt>
      <trkpt lat="50.713827" lon="6.456687">
        <ele>322.700000</ele>
        <time>2009-07-19T18:19:10Z</time>
      </trkpt>
      <trkpt lat="50.713762" lon="6.456415">
        <ele>326.000000</ele>
        <time>2009-07-19T18:19:33Z</time>
      </trkpt>
      <trkpt lat="50.713579" lon="6.455868">
        <ele>331.800000</ele>
        <time>2009-07-19T18:20:21Z</time>
      </trkpt>
      <trkpt lat="50.713534" lon="6.455617">
        <ele>332.800000</ele>
        <time>2009-07-19T18:20:41Z</time>
      </trkpt>
      <trkpt lat="50.713362" lon="6.455331">
        <ele>337.600000</ele>
        <time>2009-07-19T18:21:11Z</time>
      </trkpt>
      <trkpt lat="50.713061" lon="6.455123">
        <ele>341.400000</ele>
        <time>2009-07-19T18:21:51Z</time>
      </trkpt>
      <trkpt lat="50.712879" lon="6.455265">
        <ele>343.800000</ele>
        <time>2009-07-19T18:22:16Z</time>
      </trkpt>
      <trkpt lat="50.712687" lon="6.455816">
        <ele>347.200000</ele>
        <time>2009-07-19T18:23:05Z</time>
      </trkpt>
      <trkpt lat="50.712419" lon="6.456170">
        <ele>350.500000</ele>
        <time>2009-07-19T18:23:47Z</time>
      </trkpt>
      <trkpt lat="50.712016" lon="6.456777">
        <ele>356.300000</ele>
        <time>2009-07-19T18:24:55Z</time>
      </trkpt>
      <trkpt lat="50.711496" lon="6.457475">
        <ele>358.700000</ele>
        <time>2009-07-19T18:26:19Z</time>
      </trkpt>
      <trkpt lat="50.711147" lon="6.458379">
        <ele>362.600000</ele>
        <time>2009-07-19T18:27:40Z</time>
      </trkpt>
      <trkpt lat="50.710571" lon="6.459302">
        <ele>366.400000</ele>
        <time>2009-07-19T18:29:21Z</time>
      </trkpt>
      <trkpt lat="50.710031" lon="6.459730">
        <ele>369.800000</ele>
        <time>2009-07-19T18:30:34Z</time>
      </trkpt>
      <trkpt lat="50.709913" lon="6.459525">
        <ele>371.700000</ele>
        <time>2009-07-19T18:30:56Z</time>
      </trkpt>
      <trkpt lat="50.709839" lon="6.459230">
        <ele>372.600000</ele>
        <time>2009-07-19T18:31:20Z</time>
      </trkpt>
      <trkpt lat="50.709669" lon="6.458615">
        <ele>376.000000</ele>
        <time>2009-07-19T18:32:12Z</time>
      </trkpt>
      <trkpt lat="50.709173" lon="6.457026">
        <ele>379.900000</ele>
        <time>2009-07-19T18:34:29Z</time>
      </trkpt>
      <trkpt lat="50.708929" lon="6.456339">
        <ele>383.200000</ele>
        <time>2009-07-19T18:35:30Z</time>
      </trkpt>
      <trkpt lat="50.708867" lon="6.456170">
        <ele>384.200000</ele>
        <time>2009-07-19T18:35:45Z</time>
      </trkpt>
      <trkpt lat="50.708483" lon="6.456419">
        <ele>385.600000</ele>
        <time>2009-07-19T18:36:36Z</time>
      </trkpt>
      <trkpt lat="50.708672" lon="6.455966">
        <ele>387.100000</ele>
        <time>2009-07-19T18:37:18Z</time>
      </trkpt>
      <trkpt lat="50.708757" lon="6.455968">
        <ele>386.100000</ele>
        <time>2009-07-19T18:37:28Z</time>
      </trkpt>
      <trkpt lat="50.708956" lon="6.456565">
        <ele>381.800000</ele>
        <time>2009-07-19T18:38:20Z</time>
      </trkpt>
      <trkpt lat="50.709158" lon="6.457218">
        <ele>378.400000</ele>
        <time>2009-07-19T18:39:16Z</time>
      </trkpt>
      <trkpt lat="50.709415" lon="6.457963">
        <ele>375.500000</ele>
        <time>2009-07-19T18:40:22Z</time>
      </trkpt>
      <trkpt lat="50.709237" lon="6.458426">
        <ele>372.200000</ele>
        <time>2009-07-19T18:41:04Z</time>
      </trkpt>
      <trkpt lat="50.709016" lon="6.458866">
        <ele>371.200000</ele>
        <time>2009-07-19T18:41:47Z</time>
      </trkpt>
      <trkpt lat="50.708500" lon="6.459868">
        <ele>367.400000</ele>
        <time>2009-07-19T18:43:27Z</time>
      </trkpt>
      <trkpt lat="50.707850" lon="6.460259">
        <ele>368.300000</ele>
        <time>2009-07-19T18:44:52Z</time>
      </trkpt>
      <trkpt lat="50.706707" lon="6.461034">
        <ele>364.000000</ele>
        <time>2009-07-19T18:47:24Z</time>
      </trkpt>
      <trkpt lat="50.706578" lon="6.461034">
        <ele>364.500000</ele>
        <time>2009-07-19T18:47:39Z</time>
      </trkpt>
      <trkpt lat="50.706656" lon="6.460882">
        <ele>364.500000</ele>
        <time>2009-07-19T18:47:55Z</time>
      </trkpt>
      <trkpt lat="50.707016" lon="6.460414">
        <ele>360.600000</ele>
        <time>2009-07-19T18:48:51Z</time>
      </trkpt>
      <trkpt lat="50.707080" lon="6.460312">
        <ele>364.000000</ele>
        <time>2009-07-19T18:49:02Z</time>
      </trkpt>
      <trkpt lat="50.707692" lon="6.457818">
        <ele>365.000000</ele>
        <time>2009-07-19T18:52:29Z</time>
      </trkpt>
      <trkpt lat="50.707723" lon="6.457659">
        <ele>365.000000</ele>
        <time>2009-07-19T18:52:42Z</time>
      </trkpt>
      <trkpt lat="50.707797" lon="6.456961">
        <ele>368.300000</ele>
        <time>2009-07-19T18:53:37Z</time>
      </trkpt>
      <trkpt lat="50.707765" lon="6.456159">
        <ele>372.200000</ele>
        <time>2009-07-19T18:54:39Z</time>
      </trkpt>
      <trkpt lat="50.707528" lon="6.454605">
        <ele>374.600000</ele>
        <time>2009-07-19T18:56:42Z</time>
      </trkpt>
      <trkpt lat="50.707504" lon="6.454110">
        <ele>375.100000</ele>
        <time>2009-07-19T18:57:21Z</time>
      </trkpt>
      <trkpt lat="50.707211" lon="6.453574">
        <ele>378.900000</ele>
        <time>2009-07-19T18:58:15Z</time>
      </trkpt>
      <trkpt lat="50.706714" lon="6.452584">
        <ele>383.200000</ele>
        <time>2009-07-19T18:59:53Z</time>
      </trkpt>
      <trkpt lat="50.706768" lon="6.452792">
        <ele>380.800000</ele>
        <time>2009-07-19T19:00:10Z</time>
      </trkpt>
      <trkpt lat="50.707001" lon="6.453186">
        <ele>382.300000</ele>
        <time>2009-07-19T19:00:52Z</time>
      </trkpt>
      <trkpt lat="50.707442" lon="6.454031">
        <ele>376.500000</ele>
        <time>2009-07-19T19:02:17Z</time>
      </trkpt>
      <trkpt lat="50.707615" lon="6.454053">
        <ele>376.500000</ele>
        <time>2009-07-19T19:02:38Z</time>
      </trkpt>
      <trkpt lat="50.707727" lon="6.454012">
        <ele>377.000000</ele>
        <time>2009-07-19T19:02:52Z</time>
      </trkpt>
      <trkpt lat="50.708070" lon="6.453862">
        <ele>373.600000</ele>
        <time>2009-07-19T19:03:35Z</time>
      </trkpt>
      <trkpt lat="50.708187" lon="6.453825">
        <ele>370.200000</ele>
        <time>2009-07-19T19:03:50Z</time>
      </trkpt>
      <trkpt lat="50.708423" lon="6.453953">
        <ele>365.400000</ele>
        <time>2009-07-19T19:04:20Z</time>
      </trkpt>
      <trkpt lat="50.708813" lon="6.454451">
        <ele>370.200000</ele>
        <time>2009-07-19T19:05:22Z</time>
      </trkpt>
      <trkpt lat="50.708884" lon="6.454422">
        <ele>367.400000</ele>
        <time>2009-07-19T19:05:31Z</time>
      </trkpt>
      <trkpt lat="50.709129" lon="6.454515">
        <ele>363.000000</ele>
        <time>2009-07-19T19:06:01Z</time>
      </trkpt>
      <trkpt lat="50.709281" lon="6.454799">
        <ele>359.200000</ele>
        <time>2009-07-19T19:06:30Z</time>
      </trkpt>
      <trkpt lat="50.709609" lon="6.454960">
        <ele>353.900000</ele>
        <time>2009-07-19T19:07:12Z</time>
      </trkpt>
      <trkpt lat="50.709957" lon="6.455171">
        <ele>348.600000</ele>
        <time>2009-07-19T19:07:58Z</time>
      </trkpt>
      <trkpt lat="50.710944" lon="6.455734">
        <ele>350.500000</ele>
        <time>2009-07-19T19:10:06Z</time>
      </trkpt>
      <trkpt lat="50.710787" lon="6.455567">
        <ele>350.100000</ele>
        <time>2009-07-19T19:10:29Z</time>
      </trkpt>
      <trkpt lat="50.710370" lon="6.455240">
        <ele>344.300000</ele>
        <time>2009-07-19T19:11:26Z</time>
      </trkpt>
      <trkpt lat="50.710206" lon="6.454982">
        <ele>342.800000</ele>
        <time>2009-07-19T19:11:54Z</time>
      </trkpt>
      <trkpt lat="50.709914" lon="6.454605">
        <ele>346.200000</ele>
        <time>2009-07-19T19:12:40Z</time>
      </trkpt>
      <trkpt lat="50.709171" lon="6.453563">
        <ele>342.400000</ele>
        <time>2009-07-19T19:14:41Z</time>
      </trkpt>
      <trkpt lat="50.709033" lon="6.453383">
        <ele>342.800000</ele>
        <time>2009-07-19T19:15:03Z</time>
      </trkpt>
      <trkpt lat="50.707076" lon="6.450835">
        <ele>340.400000</ele>
        <time>2009-07-19T19:20:12Z</time>
      </trkpt>
      <trkpt lat="50.706340" lon="6.451208">
        <ele>337.100000</ele>
        <time>2009-07-19T19:21:47Z</time>
      </trkpt>
      <trkpt lat="50.705939" lon="6.451480">
        <ele>335.600000</ele>
        <time>2009-07-19T19:22:40Z</time>
      </trkpt>
      <trkpt lat="50.705412" lon="6.453373">
        <ele>335.600000</ele>
        <time>2009-07-19T19:25:20Z</time>
      </trkpt>
      <trkpt lat="50.705777" lon="6.456008">
        <ele>341.400000</ele>
        <time>2009-07-19T19:28:48Z</time>
      </trkpt>
      <trkpt lat="50.705882" lon="6.456675">
        <ele>344.300000</ele>
        <time>2009-07-19T19:29:41Z</time>
      </trkpt>
      <trkpt lat="50.706380" lon="6.458044">
        <ele>348.600000</ele>
        <time>2009-07-19T19:31:43Z</time>
      </trkpt>
      <trkpt lat="50.706522" lon="6.458785">
        <ele>352.000000</ele>
        <time>2009-07-19T19:32:43Z</time>
      </trkpt>
      <trkpt lat="50.706406" lon="6.459112">
        <ele>351.500000</ele>
        <time>2009-07-19T19:33:12Z</time>
      </trkpt>
      <trkpt lat="50.706277" lon="6.459312">
        <ele>352.500000</ele>
        <time>2009-07-19T19:33:34Z</time>
      </trkpt>
      <trkpt lat="50.706140" lon="6.459548">
        <ele>353.400000</ele>
        <time>2009-07-19T19:33:59Z</time>
      </trkpt>
      <trkpt lat="50.705610" lon="6.459937">
        <ele>358.200000</ele>
        <time>2009-07-19T19:35:10Z</time>
      </trkpt>
      <trkpt lat="50.705444" lon="6.459513">
        <ele>354.400000</ele>
        <time>2009-07-19T19:35:49Z</time>
      </trkpt>
      <trkpt lat="50.705352" lon="6.459386">
        <ele>351.000000</ele>
        <time>2009-07-19T19:36:04Z</time>
      </trkpt>
      <trkpt lat="50.704369" lon="6.457145">
        <ele>352.000000</ele>
        <time>2009-07-19T19:39:34Z</time>
      </trkpt>
      <trkpt lat="50.704410" lon="6.457009">
        <ele>351.500000</ele>
        <time>2009-07-19T19:39:46Z</time>
      </trkpt>
      <trkpt lat="50.704383" lon="6.456628">
        <ele>346.200000</ele>
        <time>2009-07-19T19:40:16Z</time>
      </trkpt>
      <trkpt lat="50.704335" lon="6.456444">
        <ele>342.800000</ele>
        <time>2009-07-19T19:40:31Z</time>
      </trkpt>
      <trkpt lat="50.704299" lon="6.456164">
        <ele>339.500000</ele>
        <time>2009-07-19T19:40:53Z</time>
      </trkpt>
      <trkpt lat="50.703826" lon="6.455199">
        <ele>344.800000</ele>
        <time>2009-07-19T19:42:28Z</time>
      </trkpt>
      <trkpt lat="50.703574" lon="6.454504">
        <ele>345.700000</ele>
        <time>2009-07-19T19:43:29Z</time>
      </trkpt>
      <trkpt lat="50.703504" lon="6.454161">
        <ele>341.400000</ele>
        <time>2009-07-19T19:43:57Z</time>
      </trkpt>
      <trkpt lat="50.703384" lon="6.453207">
        <ele>338.500000</ele>
        <time>2009-07-19T19:45:12Z</time>
      </trkpt>
      <trkpt lat="50.703294" lon="6.452915">
        <ele>332.300000</ele>
        <time>2009-07-19T19:45:38Z</time>
      </trkpt>
      <trkpt lat="50.703341" lon="6.452597">
        <ele>323.100000</ele>
        <time>2009-07-19T19:46:03Z</time>
      </trkpt>
      <trkpt lat="50.703274" lon="6.452343">
        <ele>316.900000</ele>
        <time>2009-07-19T19:46:24Z</time>
      </trkpt>
      <trkpt lat="50.703209" lon="6.452150">
        <ele>312.600000</ele>
        <time>2009-07-19T19:46:41Z</time>
      </trkpt>
      <trkpt lat="50.703198" lon="6.451983">
        <ele>307.800000</ele>
        <time>2009-07-19T19:46:54Z</time>
      </trkpt>
      <trkpt lat="50.703201" lon="6.451737">
        <ele>302.000000</ele>
        <time>2009-07-19T19:47:13Z</time>
      </trkpt>
      <trkpt lat="50.703155" lon="6.451595">
        <ele>297.200000</ele>
        <time>2009-07-19T19:47:25Z</time>
      </trkpt>
      <trkpt lat="50.703069" lon="6.450856">
        <ele>289.500000</ele>
        <time>2009-07-19T19:48:23Z</time>
      </trkpt>
      <trkpt lat="50.703061" lon="6.450673">
        <ele>285.600000</ele>
        <time>2009-07-19T19:48:37Z</time>
      </trkpt>
      <trkpt lat="50.703045" lon="6.450363">
        <ele>278.900000</ele>
        <time>2009-07-19T19:49:01Z</time>
      </trkpt>
      <trkpt lat="50.703019" lon="6.450129">
        <ele>272.200000</ele>
        <time>2009-07-19T19:49:20Z</time>
      </trkpt>
      <trkpt lat="50.702994" lon="6.449933">
        <ele>268.800000</ele>
        <time>2009-07-19T19:49:35Z</time>
      </trkpt>
      <trkpt lat="50.702984" lon="6.449707">
        <ele>264.000000</ele>
        <time>2009-07-19T19:49:53Z</time>
      </trkpt>
      <trkpt lat="50.703006" lon="6.449550">
        <ele>260.200000</ele>
        <time>2009-07-19T19:50:05Z</time>
      </trkpt>
      <trkpt lat="50.703023" lon="6.449358">
        <ele>255.800000</ele>
        <time>2009-07-19T19:50:20Z</time>
      </trkpt>
      <trkpt lat="50.703046" lon="6.449015">
        <ele>244.300000</ele>
        <time>2009-07-19T19:50:47Z</time>
      </trkpt>
      <trkpt lat="50.702910" lon="6.449166">
        <ele>246.700000</ele>
        <time>2009-07-19T19:51:07Z</time>
      </trkpt>
      <trkpt lat="50.702832" lon="6.449657">
        <ele>248.600000</ele>
        <time>2009-07-19T19:51:46Z</time>
      </trkpt>
      <trkpt lat="50.702749" lon="6.450300">
        <ele>253.400000</ele>
        <time>2009-07-19T19:52:37Z</time>
      </trkpt>
      <trkpt lat="50.702654" lon="6.450701">
        <ele>253.000000</ele>
        <time>2009-07-19T19:53:10Z</time>
      </trkpt>
      <trkpt lat="50.702323" lon="6.452122">
        <ele>258.700000</ele>
        <time>2009-07-19T19:55:07Z</time>
      </trkpt>
      <trkpt lat="50.702477" lon="6.453982">
        <ele>262.100000</ele>
        <time>2009-07-19T19:57:32Z</time>
      </trkpt>
      <trkpt lat="50.702530" lon="6.454100">
        <ele>262.100000</ele>
        <time>2009-07-19T19:57:43Z</time>
      </trkpt>
      <trkpt lat="50.702640" lon="6.455133">
        <ele>265.900000</ele>
        <time>2009-07-19T19:59:04Z</time>
      </trkpt>
      <trkpt lat="50.702787" lon="6.455369">
        <ele>266.900000</ele>
        <time>2009-07-19T19:59:30Z</time>
      </trkpt>
      <trkpt lat="50.703138" lon="6.455919">
        <ele>270.300000</ele>
        <time>2009-07-19T20:00:30Z</time>
      </trkpt>
      <trkpt lat="50.703237" lon="6.456110">
        <ele>270.700000</ele>
        <time>2009-07-19T20:00:49Z</time>
      </trkpt>
      <trkpt lat="50.703094" lon="6.457243">
        <ele>272.700000</ele>
        <time>2009-07-19T20:02:18Z</time>
      </trkpt>
      <trkpt lat="50.703407" lon="6.458465">
        <ele>276.500000</ele>
        <time>2009-07-19T20:04:00Z</time>
      </trkpt>
      <trkpt lat="50.703404" lon="6.458610">
        <ele>276.500000</ele>
        <time>2009-07-19T20:04:12Z</time>
      </trkpt>
      <trkpt lat="50.703557" lon="6.459400">
        <ele>278.000000</ele>
        <time>2009-07-19T20:05:15Z</time>
      </trkpt>
      <trkpt lat="50.703641" lon="6.459524">
        <ele>277.500000</ele>
        <time>2009-07-19T20:05:29Z</time>
      </trkpt>
      <trkpt lat="50.703789" lon="6.460606">
        <ele>279.900000</ele>
        <time>2009-07-19T20:06:55Z</time>
      </trkpt>
      <trkpt lat="50.703765" lon="6.461258">
        <ele>275.600000</ele>
        <time>2009-07-19T20:07:45Z</time>
      </trkpt>
      <trkpt lat="50.703601" lon="6.461384">
        <ele>273.200000</ele>
        <time>2009-07-19T20:08:08Z</time>
      </trkpt>
      <trkpt lat="50.703470" lon="6.461488">
        <ele>273.600000</ele>
        <time>2009-07-19T20:08:26Z</time>
      </trkpt>
      <trkpt lat="50.702689" lon="6.462657">
        <ele>278.900000</ele>
        <time>2009-07-19T20:10:37Z</time>
      </trkpt>
      <trkpt lat="50.702764" lon="6.462770">
        <ele>283.700000</ele>
        <time>2009-07-19T20:10:50Z</time>
      </trkpt>
      <trkpt lat="50.702832" lon="6.463120">
        <ele>290.000000</ele>
        <time>2009-07-19T20:11:18Z</time>
      </trkpt>
      <trkpt lat="50.702889" lon="6.463277">
        <ele>294.800000</ele>
        <time>2009-07-19T20:11:32Z</time>
      </trkpt>
      <trkpt lat="50.702969" lon="6.463444">
        <ele>299.600000</ele>
        <time>2009-07-19T20:11:48Z</time>
      </trkpt>
      <trkpt lat="50.702996" lon="6.463608">
        <ele>303.400000</ele>
        <time>2009-07-19T20:12:01Z</time>
      </trkpt>
      <trkpt lat="50.702986" lon="6.463804">
        <ele>306.800000</ele>
        <time>2009-07-19T20:12:16Z</time>
      </trkpt>
      <trkpt lat="50.702974" lon="6.464033">
        <ele>310.200000</ele>
        <time>2009-07-19T20:12:34Z</time>
      </trkpt>
      <trkpt lat="50.702982" lon="6.464246">
        <ele>314.500000</ele>
        <time>2009-07-19T20:12:51Z</time>
      </trkpt>
      <trkpt lat="50.702915" lon="6.464556">
        <ele>316.900000</ele>
        <time>2009-07-19T20:13:16Z</time>
      </trkpt>
      <trkpt lat="50.702536" lon="6.465143">
        <ele>315.400000</ele>
        <time>2009-07-19T20:14:21Z</time>
      </trkpt>
      <trkpt lat="50.702133" lon="6.465651">
        <ele>313.000000</ele>
        <time>2009-07-19T20:15:24Z</time>
      </trkpt>
      <trkpt lat="50.701888" lon="6.465738">
        <ele>308.200000</ele>
        <time>2009-07-19T20:15:54Z</time>
      </trkpt>
      <trkpt lat="50.701706" lon="6.466025">
        <ele>303.900000</ele>
        <time>2009-07-19T20:16:26Z</time>
      </trkpt>
      <trkpt lat="50.701533" lon="6.466303">
        <ele>300.500000</ele>
        <time>2009-07-19T20:16:56Z</time>
      </trkpt>
      <trkpt lat="50.701452" lon="6.466393">
        <ele>301.000000</ele>
        <time>2009-07-19T20:17:08Z</time>
      </trkpt>
      <trkpt lat="50.700828" lon="6.466523">
        <ele>294.300000</ele>
        <time>2009-07-19T20:18:25Z</time>
      </trkpt>
      <trkpt lat="50.700663" lon="6.466738">
        <ele>293.800000</ele>
        <time>2009-07-19T20:18:51Z</time>
      </trkpt>
      <trkpt lat="50.700602" lon="6.467013">
        <ele>297.700000</ele>
        <time>2009-07-19T20:19:13Z</time>
      </trkpt>
      <trkpt lat="50.700582" lon="6.467167">
        <ele>296.700000</ele>
        <time>2009-07-19T20:19:25Z</time>
      </trkpt>
      <trkpt lat="50.699700" lon="6.467848">
        <ele>301.000000</ele>
        <time>2009-07-19T20:21:25Z</time>
      </trkpt>
      <trkpt lat="50.699475" lon="6.468649">
        <ele>305.400000</ele>
        <time>2009-07-19T20:22:33Z</time>
      </trkpt>
      <trkpt lat="50.698913" lon="6.470217">
        <ele>308.700000</ele>
        <time>2009-07-19T20:24:52Z</time>
      </trkpt>
      <trkpt lat="50.698534" lon="6.471321">
        <ele>313.500000</ele>
        <time>2009-07-19T20:26:29Z</time>
      </trkpt>
      <trkpt lat="50.698108" lon="6.472304">
        <ele>316.900000</ele>
        <time>2009-07-19T20:28:01Z</time>
      </trkpt>
      <trkpt lat="50.698042" lon="6.472452">
        <ele>316.900000</ele>
        <time>2009-07-19T20:28:15Z</time>
      </trkpt>
      <trkpt lat="50.697963" lon="6.472539">
        <ele>315.400000</ele>
        <time>2009-07-19T20:28:27Z</time>
      </trkpt>
      <trkpt lat="50.697150" lon="6.471936">
        <ele>315.400000</ele>
        <time>2009-07-19T20:30:17Z</time>
      </trkpt>
      <trkpt lat="50.696947" lon="6.471226">
        <ele>320.300000</ele>
        <time>2009-07-19T20:31:17Z</time>
      </trkpt>
      <trkpt lat="50.696887" lon="6.471002">
        <ele>318.300000</ele>
        <time>2009-07-19T20:31:36Z</time>
      </trkpt>
      <trkpt lat="50.696687" lon="6.470808">
        <ele>314.500000</ele>
        <time>2009-07-19T20:32:04Z</time>
      </trkpt>
      <trkpt lat="50.696295" lon="6.470592">
        <ele>309.200000</ele>
        <time>2009-07-19T20:32:55Z</time>
      </trkpt>
      <trkpt lat="50.696372" lon="6.469912">
        <ele>305.400000</ele>
        <time>2009-07-19T20:33:48Z</time>
      </trkpt>
      <trkpt lat="50.696523" lon="6.469449">
        <ele>301.500000</ele>
        <time>2009-07-19T20:34:29Z</time>
      </trkpt>
      <trkpt lat="50.696593" lon="6.468763">
        <ele>298.100000</ele>
        <time>2009-07-19T20:35:22Z</time>
      </trkpt>
      <trkpt lat="50.696619" lon="6.468459">
        <ele>294.300000</ele>
        <time>2009-07-19T20:35:46Z</time>
      </trkpt>
      <trkpt lat="50.696596" lon="6.468183">
        <ele>291.400000</ele>
        <time>2009-07-19T20:36:08Z</time>
      </trkpt>
      <trkpt lat="50.696202" lon="6.467713">
        <ele>285.200000</ele>
        <time>2009-07-19T20:37:08Z</time>
      </trkpt>
      <trkpt lat="50.695862" lon="6.467373">
        <ele>281.800000</ele>
        <time>2009-07-19T20:37:57Z</time>
      </trkpt>
      <trkpt lat="50.695129" lon="6.466255">
        <ele>279.900000</ele>
        <time>2009-07-19T20:40:01Z</time>
      </trkpt>
      <trkpt lat="50.694985" lon="6.465799">
        <ele>275.100000</ele>
        <time>2009-07-19T20:40:41Z</time>
      </trkpt>
      <trkpt lat="50.694885" lon="6.465553">
        <ele>272.200000</ele>
        <time>2009-07-19T20:41:03Z</time>
      </trkpt>
      <trkpt lat="50.694648" lon="6.465035">
        <ele>268.800000</ele>
        <time>2009-07-19T20:41:53Z</time>
      </trkpt>
      <trkpt lat="50.694296" lon="6.463874">
        <ele>262.600000</ele>
        <time>2009-07-19T20:43:32Z</time>
      </trkpt>
      <trkpt lat="50.694277" lon="6.463433">
        <ele>257.800000</ele>
        <time>2009-07-19T20:44:07Z</time>
      </trkpt>
      <trkpt lat="50.694248" lon="6.462893">
        <ele>253.400000</ele>
        <time>2009-07-19T20:44:48Z</time>
      </trkpt>
      <trkpt lat="50.694236" lon="6.462419">
        <ele>249.100000</ele>
        <time>2009-07-19T20:45:25Z</time>
      </trkpt>
      <trkpt lat="50.694243" lon="6.461969">
        <ele>247.200000</ele>
        <time>2009-07-19T20:46:00Z</time>
      </trkpt>
      <trkpt lat="50.693845" lon="6.461188">
        <ele>242.900000</ele>
        <time>2009-07-19T20:47:17Z</time>
      </trkpt>
      <trkpt lat="50.693886" lon="6.460880">
        <ele>239.500000</ele>
        <time>2009-07-19T20:47:42Z</time>
      </trkpt>
      <trkpt lat="50.693957" lon="6.460633">
        <ele>237.600000</ele>
        <time>2009-07-19T20:48:03Z</time>
      </trkpt>
      <trkpt lat="50.694111" lon="6.460033">
        <ele>234.200000</ele>
        <time>2009-07-19T20:48:53Z</time>
      </trkpt>
      <trkpt lat="50.694179" lon="6.459340">
        <ele>229.900000</ele>
        <time>2009-07-19T20:49:47Z</time>
      </trkpt>
      <trkpt lat="50.694328" lon="6.458787">
        <ele>226.000000</ele>
        <time>2009-07-19T20:50:33Z</time>
      </trkpt>
      <trkpt lat="50.694514" lon="6.458473">
        <ele>222.700000</ele>
        <time>2009-07-19T20:51:07Z</time>
      </trkpt>
      <trkpt lat="50.694691" lon="6.458238">
        <ele>218.800000</ele>
        <time>2009-07-19T20:51:35Z</time>
      </trkpt>
      <trkpt lat="50.694694" lon="6.457689">
        <ele>214.000000</ele>
        <time>2009-07-19T20:52:17Z</time>
      </trkpt>
      <trkpt lat="50.694575" lon="6.456891">
        <ele>208.700000</ele>
        <time>2009-07-19T20:53:21Z</time>
      </trkpt>
      <trkpt lat="50.694462" lon="6.456482">
        <ele>203.900000</ele>
        <time>2009-07-19T20:53:55Z</time>
      </trkpt>
      <trkpt lat="50.694320" lon="6.455866">
        <ele>199.100000</ele>
        <time>2009-07-19T20:54:46Z</time>
      </trkpt>
      <trkpt lat="50.694153" lon="6.455449">
        <ele>196.200000</ele>
        <time>2009-07-19T20:55:24Z</time>
      </trkpt>
      <trkpt lat="50.693605" lon="6.455378">
        <ele>191.400000</ele>
        <time>2009-07-19T20:56:31Z</time>
      </trkpt>
      <trkpt lat="50.693225" lon="6.455420">
        <ele>186.600000</ele>
        <time>2009-07-19T20:57:18Z</time>
      </trkpt>
      <trkpt lat="50.692569" lon="6.455340">
        <ele>183.300000</ele>
        <time>2009-07-19T20:58:38Z</time>
      </trkpt>
      <trkpt lat="50.691913" lon="6.455293">
        <ele>179.900000</ele>
        <time>2009-07-19T20:59:58Z</time>
      </trkpt>
      <trkpt lat="50.691897" lon="6.455136">
        <ele>179.900000</ele>
        <time>2009-07-19T21:00:10Z</time>
      </trkpt>
      <trkpt lat="50.691771" lon="6.454428">
        <ele>181.300000</ele>
        <time>2009-07-19T21:01:07Z</time>
      </trkpt>
      <trkpt lat="50.691290" lon="6.454612">
        <ele>179.400000</ele>
        <time>2009-07-19T21:02:08Z</time>
      </trkpt>
    </trkseg>
  </trk>

</gpx>
